Time;durP1;ratioP1;P1;durP2;ratioP2;P2;SDS_P1;SDS_P2;PMS_P1;PMS_P2;Temp;Humidity;BMP_temperature;BMP_pressure;BME280_temperature;BME280_humidity;BME280_pressure;Samples;Min_cycle;Max_cycle;Signal;HPM_P1;HPM_P2
2023/07/22 00:01:32;;;;;;;70.47;45.30;;;;;;;;;;5099632;28;20051;-67
2023/07/22 00:03:59;;;;;;;55.03;34.03;;;;;;;;;;5096562;28;20127;-68
2023/07/22 00:06:26;;;;;;;54.78;32.95;;;;;;;;;;5096757;28;20063;-65
2023/07/22 00:08:53;;;;;;;44.65;30.38;;;;;;;;;;5096645;28;20043;-66
2023/07/22 00:11:20;;;;;;;48.17;29.80;;;;;;;;;;5096675;28;20071;-65
2023/07/22 00:13:47;;;;;;;52.97;31.23;;;;;;;;;;5096677;28;20089;-66
2023/07/22 00:16:13;;;;;;;55.63;35.17;;;;;;;;;;5100638;28;20043;-70
2023/07/22 00:18:40;;;;;;;53.72;31.65;;;;;;;;;;5117365;28;20531;-65
2023/07/22 00:21:06;;;;;;;46.88;29.88;;;;;;;;;;5118253;28;20039;-66
2023/07/22 00:23:33;;;;;;;56.05;30.52;;;;;;;;;;5120559;27;20039;-66
2023/07/22 00:26:00;;;;;;;47.30;31.02;;;;;;;;;;5120712;27;20034;-66
2023/07/22 00:28:26;;;;;;;42.42;28.48;;;;;;;;;;5120786;27;20035;-66
2023/07/22 00:30:53;;;;;;;44.65;28.35;;;;;;;;;;5120666;27;20038;-66
2023/07/22 00:33:20;;;;;;;39.65;27.92;;;;;;;;;;5120188;27;20035;-67
2023/07/22 00:35:51;;;;;;;46.33;30.25;;;;;;;;;;5120389;27;20486;-66
2023/07/22 00:38:18;;;;;;;37.38;27.25;;;;;;;;;;5119270;27;20104;-66
2023/07/22 00:40:45;;;;;;;42.28;30.90;;;;;;;;;;5120274;27;20040;-66
2023/07/22 00:43:12;;;;;;;47.47;29.90;;;;;;;;;;5120232;27;20043;-66
2023/07/22 00:45:38;;;;;;;47.30;28.88;;;;;;;;;;5120249;27;20040;-68
2023/07/22 00:48:07;;;;;;;48.00;28.38;;;;;;;;;;5120424;27;20035;-70
2023/07/22 00:50:34;;;;;;;41.10;26.95;;;;;;;;;;5120254;27;20044;-69
2023/07/22 00:53:00;;;;;;;51.03;29.05;;;;;;;;;;5119991;27;20046;-69
2023/07/22 00:55:27;;;;;;;37.47;25.13;;;;;;;;;;5120132;27;20417;-68
2023/07/22 00:57:55;;;;;;;56.17;29.35;;;;;;;;;;5120206;27;20047;-68
2023/07/22 01:00:22;;;;;;;45.33;29.15;;;;;;;;;;5119468;27;20481;-67
2023/07/22 01:02:49;;;;;;;46.25;28.38;;;;;;;;;;5119726;27;20043;-69
2023/07/22 01:05:16;;;;;;;48.28;29.75;;;;;;;;;;5119855;27;20036;-70
2023/07/22 01:07:43;;;;;;;52.28;29.13;;;;;;;;;;5110394;27;20406;-71
2023/07/22 01:10:10;;;;;;;44.10;27.35;;;;;;;;;;5094053;28;20379;-71
2023/07/22 01:12:38;;;;;;;48.28;29.88;;;;;;;;;;5094236;28;20101;-71
2023/07/22 01:15:07;;;;;;;45.38;29.42;;;;;;;;;;5093998;28;20068;-68
2023/07/22 01:17:35;;;;;;;44.20;29.60;;;;;;;;;;5094076;28;20032;-68
2023/07/22 01:20:02;;;;;;;52.22;30.27;;;;;;;;;;5094048;28;20063;-68
2023/07/22 01:22:29;;;;;;;50.25;30.58;;;;;;;;;;5093910;28;20502;-68
2023/07/22 01:24:56;;;;;;;44.58;30.23;;;;;;;;;;5093811;28;20074;-66
2023/07/22 01:27:23;;;;;;;44.55;29.90;;;;;;;;;;5094113;28;20059;-66
2023/07/22 01:29:52;;;;;;;54.38;33.25;;;;;;;;;;5093935;28;20051;-66
2023/07/22 01:32:19;;;;;;;44.97;30.40;;;;;;;;;;5093363;28;20036;-65
2023/07/22 01:34:46;;;;;;;68.72;45.63;;;;;;;;;;5093861;28;20048;-65
2023/07/22 01:37:13;;;;;;;48.15;32.53;;;;;;;;;;5093627;28;20479;-65
2023/07/22 01:39:40;;;;;;;50.40;32.17;;;;;;;;;;5096826;28;20035;-66
2023/07/22 01:42:07;;;;;;;42.60;30.17;;;;;;;;;;5113691;28;20123;-65
2023/07/22 01:44:34;;;;;;;52.25;28.95;;;;;;;;;;5113148;28;20039;-65
2023/07/22 01:47:03;;;;;;;40.95;28.08;;;;;;;;;;5113930;28;20100;-65
2023/07/22 01:49:30;;;;;;;41.95;25.02;;;;;;;;;;5111599;28;20477;-66
2023/07/22 01:51:56;;;;;;;49.67;27.73;;;;;;;;;;5113199;28;20048;-69
2023/07/22 01:54:23;;;;;;;44.30;26.02;;;;;;;;;;5118843;27;20039;-68
2023/07/22 01:56:50;;;;;;;50.25;28.02;;;;;;;;;;5118772;27;20459;-66
2023/07/22 01:59:17;;;;;;;36.78;24.75;;;;;;;;;;5118409;27;20496;-66
2023/07/22 02:01:44;;;;;;;42.50;25.55;;;;;;;;;;5118383;27;20047;-66
2023/07/22 02:04:10;;;;;;;88.50;61.83;;;;;;;;;;5118507;27;20035;-67
2023/07/22 02:06:37;;;;;;;77.25;48.28;;;;;;;;;;5118184;27;20092;-66
2023/07/22 02:09:08;;;;;;;70.35;48.40;;;;;;;;;;5118708;27;20105;-67
2023/07/22 02:11:38;;;;;;;45.80;30.00;;;;;;;;;;5117989;27;20047;-67
2023/07/22 02:14:06;;;;;;;43.03;24.98;;;;;;;;;;5116378;27;20130;-67
2023/07/22 02:16:36;;;;;;;47.20;22.92;;;;;;;;;;5118042;27;20051;-66
2023/07/22 02:19:04;;;;;;;31.05;19.50;;;;;;;;;;5118205;27;20401;-66
2023/07/22 02:21:30;;;;;;;32.67;19.02;;;;;;;;;;5117540;27;20039;-68
2023/07/22 02:23:57;;;;;;;33.35;18.42;;;;;;;;;;5118251;27;20027;-66
2023/07/22 02:26:23;;;;;;;31.50;18.55;;;;;;;;;;5118119;27;20515;-70
2023/07/22 02:28:50;;;;;;;36.67;17.48;;;;;;;;;;5118153;27;20043;-69
2023/07/22 02:31:17;;;;;;;23.90;15.55;;;;;;;;;;5117980;27;20051;-70
2023/07/22 02:33:43;;;;;;;27.20;16.92;;;;;;;;;;5117944;27;20055;-68
2023/07/22 02:36:10;;;;;;;29.25;16.77;;;;;;;;;;5117711;27;20035;-67
2023/07/22 02:38:37;;;;;;;28.98;16.60;;;;;;;;;;5117738;27;20031;-70
2023/07/22 02:41:06;;;;;;;26.48;16.08;;;;;;;;;;5117948;27;20439;-67
2023/07/22 02:43:33;;;;;;;26.58;16.50;;;;;;;;;;5116310;27;20048;-67
2023/07/22 02:46:02;;;;;;;175.10;124.50;;;;;;;;;;5117707;27;20063;-66
2023/07/22 02:48:28;;;;;;;57.35;40.83;;;;;;;;;;5117517;27;20042;-66
2023/07/22 02:50:55;;;;;;;42.30;25.45;;;;;;;;;;5117648;27;20069;-67
2023/07/22 02:53:22;;;;;;;66.60;46.45;;;;;;;;;;5118060;27;20454;-69
2023/07/22 02:55:48;;;;;;;41.95;23.08;;;;;;;;;;5117752;27;20044;-66
2023/07/22 02:58:15;;;;;;;30.90;18.38;;;;;;;;;;5112125;28;20044;-66
2023/07/22 03:00:43;;;;;;;26.65;15.50;;;;;;;;;;5117468;27;20091;-65
2023/07/22 03:03:09;;;;;;;30.60;15.35;;;;;;;;;;5117251;27;20050;-65
2023/07/22 03:05:36;;;;;;;30.48;16.52;;;;;;;;;;5117273;27;20059;-66
2023/07/22 03:08:03;;;;;;;26.05;16.75;;;;;;;;;;5117466;27;20047;-65
2023/07/22 03:10:29;;;;;;;34.22;16.20;;;;;;;;;;5117413;28;20059;-66
2023/07/22 03:12:56;;;;;;;27.58;16.50;;;;;;;;;;5117373;27;20036;-66
2023/07/22 03:15:39;;;;;;;35.85;18.20;;;;;;;;;;5109968;28;20055;-71
2023/07/22 03:18:06;;;;;;;21.02;13.70;;;;;;;;;;5106261;28;20405;-68
2023/07/22 03:20:33;;;;;;;58.80;40.08;;;;;;;;;;5101815;28;21970;-66
2023/07/22 03:23:00;;;;;;;44.10;27.88;;;;;;;;;;5099643;28;20066;-68
2023/07/22 03:25:27;;;;;;;28.33;19.77;;;;;;;;;;5100373;28;20043;-68
2023/07/22 03:27:54;;;;;;;52.53;39.58;;;;;;;;;;5101785;28;20048;-67
2023/07/22 03:30:22;;;;;;;26.05;16.75;;;;;;;;;;5100212;28;20040;-69
2023/07/22 03:32:50;;;;;;;27.05;17.08;;;;;;;;;;5099742;28;20377;-70
2023/07/22 03:35:17;;;;;;;21.65;15.02;;;;;;;;;;5101282;28;20036;-69
2023/07/22 03:37:44;;;;;;;28.33;16.20;;;;;;;;;;5101178;28;20040;-67
2023/07/22 03:40:20;;;;;;;30.20;22.40;;;;;;;;;;5099434;28;20048;-68
2023/07/22 03:42:48;;;;;;;38.25;27.77;;;;;;;;;;5100170;28;20075;-69
2023/07/22 03:45:15;;;;;;;69.30;47.88;;;;;;;;;;5101698;28;20024;-68
2023/07/22 03:47:42;;;;;;;68.88;45.05;;;;;;;;;;5101058;28;20040;-67
2023/07/22 03:50:09;;;;;;;36.10;23.17;;;;;;;;;;5104534;28;20113;-68
2023/07/22 03:52:36;;;;;;;56.78;39.70;;;;;;;;;;5105278;28;20024;-70
2023/07/22 03:55:22;;;;;;;96.28;64.72;;;;;;;;;;5105321;27;20068;-69
2023/07/22 03:57:48;;;;;;;58.33;38.25;;;;;;;;;;5107126;28;20031;-68
2023/07/22 04:00:15;;;;;;;48.97;25.25;;;;;;;;;;5111333;28;20101;-65
2023/07/22 04:02:42;;;;;;;22.58;13.05;;;;;;;;;;5107987;28;20028;-67
2023/07/22 04:05:09;;;;;;;23.73;12.75;;;;;;;;;;5109725;27;20031;-66
2023/07/22 04:07:36;;;;;;;19.23;12.60;;;;;;;;;;5109191;28;20020;-65
2023/07/22 04:10:03;;;;;;;17.48;12.73;;;;;;;;;;5109358;28;20072;-66
2023/07/22 04:12:30;;;;;;;27.55;13.65;;;;;;;;;;5105255;28;20081;-64
2023/07/22 04:14:56;;;;;;;21.80;12.52;;;;;;;;;;5105509;28;20538;-65
2023/07/22 04:17:23;;;;;;;22.58;13.80;;;;;;;;;;5106621;28;20034;-65
2023/07/22 04:19:52;;;;;;;24.73;13.68;;;;;;;;;;5105395;28;20051;-65
2023/07/22 04:22:18;;;;;;;26.48;13.52;;;;;;;;;;5107434;28;20136;-69
2023/07/22 04:24:48;;;;;;;21.42;13.18;;;;;;;;;;5106874;28;20067;-71
2023/07/22 04:27:15;;;;;;;19.48;13.02;;;;;;;;;;5104840;28;20016;-66
2023/07/22 04:29:42;;;;;;;21.85;12.32;;;;;;;;;;5105094;28;20090;-66
2023/07/22 04:32:09;;;;;;;18.60;12.25;;;;;;;;;;5107589;28;20570;-65
2023/07/22 04:34:36;;;;;;;21.77;12.48;;;;;;;;;;5105649;28;20032;-65
2023/07/22 04:37:02;;;;;;;19.48;12.20;;;;;;;;;;5104256;28;20043;-64
2023/07/22 04:39:30;;;;;;;19.63;11.85;;;;;;;;;;5105632;28;20038;-66
2023/07/22 04:41:56;;;;;;;26.50;13.38;;;;;;;;;;5105751;28;20482;-67
2023/07/22 04:44:23;;;;;;;144.10;109.15;;;;;;;;;;5103955;28;20016;-65
2023/07/22 04:46:50;;;;;;;170.15;104.82;;;32.00;99.90;;;;;;5105232;28;20214;-66
2023/07/22 04:49:17;;;;;;;47.78;33.58;;;32.00;99.90;;;;;;5105455;28;20043;-65
2023/07/22 04:51:45;;;;;;;19.98;15.05;;;32.00;99.90;;;;;;5104117;28;20032;-66
2023/07/22 04:54:12;;;;;;;17.60;12.65;;;31.90;99.90;;;;;;5105024;28;20074;-66
2023/07/22 04:56:38;;;;;;;22.85;11.98;;;31.90;99.90;;;;;;5105638;28;20024;-66
2023/07/22 04:59:05;;;;;;;21.63;11.95;;;31.90;99.90;;;;;;5103888;28;20020;-65
2023/07/22 05:01:32;;;;;;;40.88;29.10;;;31.80;99.90;;;;;;5110570;28;20505;-67
2023/07/22 05:03:58;;;;;;;17.30;12.20;;;31.80;99.90;;;;;;5099696;28;20020;-65
2023/07/22 05:06:25;;;;;;;20.02;13.50;;;31.80;99.90;;;;;;5096804;28;20023;-66
2023/07/22 05:08:51;;;;;;;19.58;12.10;;;31.80;99.90;;;;;;5097452;28;20024;-66
2023/07/22 05:11:18;;;;;;;16.75;12.15;;;31.90;99.90;;;;;;5097705;28;20428;-64
2023/07/22 05:13:45;;;;;;;17.92;12.45;;;32.00;99.90;;;;;;5105877;28;20027;-65
2023/07/22 05:16:11;;;;;;;20.73;11.43;;;32.00;99.90;;;;;;5107300;28;20023;-66
2023/07/22 05:18:38;;;;;;;21.35;14.75;;;;;;;;;;5107142;27;20020;-67
2023/07/22 05:21:05;;;;;;;148.70;108.50;;;32.40;99.90;;;;;;5108430;28;20030;-68
2023/07/22 05:23:31;;;;;;;48.08;34.85;;;32.40;99.90;;;;;;5102124;28;20028;-68
2023/07/22 05:25:58;;;;;;;82.13;60.90;;;32.40;99.90;;;;;;5103732;28;20015;-66
2023/07/22 05:28:25;;;;;;;35.28;21.08;;;32.40;99.90;;;;;;5102210;28;20098;-68
2023/07/22 05:30:51;;;;;;;40.40;26.33;;;32.60;99.90;;;;;;5107635;28;20015;-67
2023/07/22 05:33:18;;;;;;;123.30;99.18;;;32.70;99.90;;;;;;5109812;28;20032;-66
2023/07/22 05:35:44;;;;;;;29.00;21.95;;;32.70;99.90;;;;;;5107928;28;20062;-65
2023/07/22 05:38:11;;;;;;;20.35;12.45;;;32.70;99.90;;;;;;5100910;28;20015;-66
2023/07/22 05:40:38;;;;;;;63.80;41.20;;;32.70;99.90;;;;;;5106699;28;20046;-65
2023/07/22 05:43:04;;;;;;;82.35;58.78;;;32.70;99.90;;;;;;5106144;28;20065;-65
2023/07/22 05:45:31;;;;;;;41.80;27.20;;;32.50;99.90;;;;;;5106795;28;20040;-65
2023/07/22 05:47:57;;;;;;;17.67;13.70;;;32.50;99.90;;;;;;5108798;28;20039;-65
2023/07/22 05:50:24;;;;;;;16.63;10.93;;;32.40;99.90;;;;;;5106175;28;20011;-67
2023/07/22 05:52:51;;;;;;;17.50;12.35;;;32.30;99.90;;;;;;5106732;28;20189;-66
2023/07/22 05:55:17;;;;;;;13.25;10.90;;;32.20;99.90;;;;;;5104807;28;20027;-67
2023/07/22 05:57:44;;;;;;;15.88;12.20;;;32.20;99.90;;;;;;5104157;28;20113;-67
2023/07/22 06:00:12;;;;;;;16.48;11.45;;;32.10;99.90;;;;;;5109316;28;20036;-67
2023/07/22 06:02:39;;;;;;;18.92;11.70;;;32.10;99.90;;;;;;5105463;28;20047;-67
2023/07/22 06:05:06;;;;;;;22.80;12.35;;;32.10;99.90;;;;;;5104685;28;20027;-67
2023/07/22 06:07:32;;;;;;;19.98;12.02;;;32.10;99.90;;;;;;5108177;28;20031;-67
2023/07/22 06:09:59;;;;;;;17.17;11.52;;;32.20;99.90;;;;;;5094748;28;20069;-67
2023/07/22 06:12:25;;;;;;;16.83;11.43;;;32.30;99.90;;;;;;5101006;28;20024;-66
2023/07/22 06:14:52;;;;;;;36.70;24.77;;;32.30;99.90;;;;;;5103618;28;20504;-67
2023/07/22 06:17:20;;;;;;;118.05;82.20;;;32.30;99.90;;;;;;5104473;27;20055;-67
2023/07/22 06:19:46;;;;;;;30.55;18.92;;;32.30;99.90;;;;;;5107563;28;20508;-67
2023/07/22 06:22:13;;;;;;;33.38;23.63;;;32.30;99.90;;;;;;5101039;28;20032;-67
2023/07/22 06:24:39;;;;;;;58.53;36.78;;;32.40;99.90;;;;;;5107557;28;20032;-67
2023/07/22 06:27:06;;;;;;;19.15;13.80;;;32.40;99.90;;;;;;5103350;28;20705;-68
2023/07/22 06:29:32;;;;;;;24.50;14.32;;;32.30;99.90;;;;;;5098996;28;20023;-66
2023/07/22 06:31:59;;;;;;;19.65;14.68;;;32.30;99.90;;;;;;5103149;28;20054;-65
2023/07/22 06:34:25;;;;;;;20.20;13.93;;;32.30;99.90;;;;;;5102772;28;20016;-69
2023/07/22 06:36:52;;;;;;;20.85;13.50;;;32.30;99.90;;;;;;5104245;28;20044;-66
2023/07/22 06:39:18;;;;;;;26.83;15.10;;;32.30;99.90;;;;;;5101395;28;20035;-66
2023/07/22 06:41:45;;;;;;;23.92;14.10;;;32.30;99.90;;;;;;5101625;28;20549;-68
2023/07/22 06:44:11;;;;;;;18.15;14.50;;;32.30;99.90;;;;;;5102534;28;20056;-67
2023/07/22 06:46:38;;;;;;;19.45;13.90;;;32.30;99.90;;;;;;5108396;28;20044;-66
2023/07/22 06:49:05;;;;;;;20.77;15.05;;;32.40;99.90;;;;;;5106909;28;20401;-67
2023/07/22 06:51:31;;;;;;;23.33;13.50;;;32.50;99.90;;;;;;5108731;28;20373;-67
2023/07/22 06:53:58;;;;;;;22.17;13.93;;;32.60;99.90;;;;;;5106000;28;20023;-66
2023/07/22 06:56:26;;;;;;;17.52;12.82;;;32.60;99.90;;;;;;5104882;27;20020;-64
2023/07/22 06:58:52;;;;;;;16.60;12.48;;;32.50;99.90;;;;;;5097686;28;20103;-66
2023/07/22 07:01:19;;;;;;;18.60;13.00;;;32.60;99.90;;;;;;5092738;28;20023;-66
2023/07/22 07:03:45;;;;;;;20.52;13.10;;;32.60;99.90;;;;;;5092863;28;20050;-66
2023/07/22 07:06:12;;;;;;;18.95;13.05;;;32.70;99.90;;;;;;5098638;28;20504;-65
2023/07/22 07:08:39;;;;;;;19.35;12.95;;;32.80;99.90;;;;;;5102974;28;20566;-66
2023/07/22 07:11:06;;;;;;;18.13;12.43;;;32.80;99.90;;;;;;5097148;28;20394;-68
2023/07/22 07:13:33;;;;;;;21.92;12.38;;;32.80;99.90;;;;;;5097610;28;20103;-69
2023/07/22 07:16:20;;;;;;;17.70;12.85;;;32.70;99.90;;;;;;5096515;28;20028;-67
2023/07/22 07:18:47;;;;;;;21.42;13.85;;;32.70;99.90;;;;;;5099747;28;20036;-66
2023/07/22 07:21:13;;;;;;;18.80;12.48;;;32.70;99.90;;;;;;5108417;28;20065;-61
2023/07/22 07:23:40;;;;;;;18.88;12.27;;;32.70;99.90;;;;;;5102377;28;20492;-66
2023/07/22 07:26:06;;;;;;;20.95;13.50;;;32.60;99.90;;;;;;5103705;28;20020;-67
2023/07/22 07:28:33;;;;;;;23.38;13.80;;;32.70;99.90;;;;;;5102437;28;20373;-67
2023/07/22 07:30:59;;;;;;;17.10;12.48;;;33.00;99.90;;;;;;5105374;28;20031;-67
2023/07/22 07:33:26;;;;;;;16.73;11.30;;;33.10;99.90;;;;;;5106260;28;20024;-67
2023/07/22 07:35:53;;;;;;;17.52;13.52;;;33.10;99.90;;;;;;5106654;28;20028;-66
2023/07/22 07:38:19;;;;;;;30.35;17.92;;;33.30;99.90;;;;;;5110299;28;20019;-67
2023/07/22 07:40:46;;;;;;;20.95;14.55;;;33.40;99.90;;;;;;5107757;28;20020;-67
2023/07/22 07:43:12;;;;;;;23.70;14.75;;;33.40;99.90;;;;;;5105783;28;20020;-66
2023/07/22 07:45:40;;;;;;;22.40;13.18;;;33.50;99.90;;;;;;5106285;28;20106;-68
2023/07/22 07:48:06;;;;;;;23.98;13.13;;;33.50;99.90;;;;;;5107334;28;20040;-67
2023/07/22 07:50:33;;;;;;;26.25;14.80;;;33.40;99.90;;;;;;5106408;28;20088;-66
2023/07/22 07:53:00;;;;;;;128.68;94.80;;;33.30;99.90;;;;;;5106586;28;20016;-67
2023/07/22 07:55:26;;;;;;;23.20;15.80;;;33.20;99.90;;;;;;5111839;28;20149;-66
2023/07/22 07:57:53;;;;;;;87.50;59.25;;;33.20;99.90;;;;;;5115249;28;20511;-66
2023/07/22 08:00:21;;;;;;;25.83;18.98;;;33.20;99.90;;;;;;5109621;28;20482;-68
2023/07/22 08:02:47;;;;;;;27.45;16.83;;;33.20;99.90;;;;;;5106056;28;20039;-69
2023/07/22 08:05:14;;;;;;;45.33;31.92;;;33.30;99.90;;;;;;5105355;28;20149;-68
2023/07/22 08:07:40;;;;;;;35.10;18.55;;;33.40;99.90;;;;;;5107132;28;20008;-69
2023/07/22 08:10:07;;;;;;;19.75;12.07;;;33.40;99.90;;;;;;5105756;28;20008;-70
2023/07/22 08:12:34;;;;;;;25.48;13.65;;;33.50;99.90;;;;;;5106201;28;20026;-68
2023/07/22 08:15:01;;;;;;;26.83;18.65;;;33.50;99.90;;;;;;5107375;28;20039;-72
2023/07/22 08:17:27;;;;;;;28.92;16.95;;;33.40;99.90;;;;;;5106241;28;20035;-68
2023/07/22 08:19:54;;;;;;;26.13;17.02;;;33.40;99.90;;;;;;5105616;28;20088;-69
2023/07/22 08:22:20;;;;;;;24.83;16.77;;;33.50;99.90;;;;;;5106731;28;20191;-69
2023/07/22 08:24:47;;;;;;;28.00;17.55;;;33.60;99.90;;;;;;5105326;28;20012;-70
2023/07/22 08:27:13;;;;;;;45.25;25.00;;;33.60;99.90;;;;;;5108429;28;20032;-66
2023/07/22 08:29:40;;;;;;;21.40;15.27;;;33.70;99.90;;;;;;5099044;28;20439;-65
2023/07/22 08:32:07;;;;;;;24.17;15.38;;;33.70;99.90;;;;;;5096529;28;20047;-65
2023/07/22 08:34:33;;;;;;;34.72;18.30;;;33.60;99.90;;;;;;5105353;28;20031;-65
2023/07/22 08:37:00;;;;;;;29.63;17.10;;;33.60;99.90;;;;;;5098668;28;20024;-65
2023/07/22 08:39:26;;;;;;;29.38;15.57;;;33.60;99.90;;;;;;5096209;28;20412;-65
2023/07/22 08:41:56;;;;;;;24.08;14.70;;;33.60;99.90;;;;;;5095171;28;20161;-65
2023/07/22 08:44:29;;;;;;;19.92;13.65;;;33.60;99.90;;;;;;5096035;28;20103;-65
2023/07/22 08:46:58;;;;;;;26.15;13.68;;;33.50;99.90;;;;;;5096293;28;20417;-66
2023/07/22 08:49:27;;;;;;;22.20;12.73;;;33.50;99.90;;;;;;5095966;28;20055;-65
2023/07/22 08:51:56;;;;;;;26.67;15.48;;;33.50;99.90;;;;;;5095810;28;20024;-66
2023/07/22 08:54:24;;;;;;;26.05;16.10;;;33.50;99.90;;;;;;5095791;28;20032;-66
2023/07/22 08:56:51;;;;;;;27.17;16.20;;;33.60;99.90;;;;;;5095917;28;20032;-65
2023/07/22 08:59:18;;;;;;;19.25;13.25;;;33.60;99.90;;;;;;5095562;28;20452;-66
2023/07/22 09:01:48;;;;;;;23.67;14.77;;;33.60;99.90;;;;;;5095705;28;20024;-65
2023/07/22 09:04:14;;;;;;;30.17;17.48;;;33.50;99.90;;;;;;5095724;28;20022;-66
2023/07/22 09:06:43;;;;;;;30.48;17.92;;;33.40;99.90;;;;;;5095625;28;20048;-66
2023/07/22 09:09:11;;;;;;;26.85;17.40;;;33.40;99.90;;;;;;5095622;28;20484;-65
2023/07/22 09:11:38;;;;;;;28.25;16.27;;;33.30;99.90;;;;;;5095677;28;20024;-64
2023/07/22 09:14:05;;;;;;;23.58;14.77;;;33.30;99.90;;;;;;5095649;28;20027;-66
2023/07/22 09:16:32;;;;;;;28.33;18.90;;;33.30;99.90;;;;;;5095813;28;20028;-65
2023/07/22 09:18:59;;;;;;;31.98;20.20;;;33.20;99.90;;;;;;5095577;28;20020;-65
2023/07/22 09:21:27;;;;;;;35.78;22.13;;;33.10;99.90;;;;;;5095733;28;20414;-65
2023/07/22 09:23:54;;;;;;;49.35;28.23;;;32.90;99.90;;;;;;5095343;28;20028;-65
2023/07/22 09:26:21;;;;;;;32.47;22.05;;;32.60;99.90;;;;;;5095360;28;20028;-66
2023/07/22 09:28:52;;;;;;;25.25;16.45;;;32.30;99.90;;;;;;5095558;28;20012;-65
2023/07/22 09:31:22;;;;;;;28.52;19.17;;;32.20;99.90;;;;;;5095250;28;20101;-65
2023/07/22 09:33:49;;;;;;;35.78;20.77;;;32.00;99.90;;;;;;5095006;28;20036;-65
2023/07/22 09:36:16;;;;;;;53.33;26.50;;;31.90;99.90;;;;;;5095194;28;20043;-65
2023/07/22 09:38:43;;;;;;;43.38;25.42;;;31.50;99.90;;;;;;5095121;28;20016;-66
2023/07/22 09:41:09;;;;;;;58.60;31.38;;;31.30;99.90;;;;;;5095076;28;20024;-65
2023/07/22 09:43:38;;;;;;;55.03;31.48;;;31.20;99.90;;;;;;5094904;28;20111;-65
2023/07/22 09:46:08;;;;;;;55.67;34.45;;;31.10;99.90;;;;;;5094966;28;20027;-65
2023/07/22 09:48:41;;;;;;;58.65;35.08;;;31.00;99.90;;;;;;5094560;28;20048;-66
2023/07/22 09:51:13;;;;;;;65.00;34.95;;;30.90;99.90;;;;;;5094865;28;20020;-65
2023/07/22 09:53:45;;;;;;;34.53;23.70;;;30.90;99.90;;;;;;5094788;28;20032;-66
2023/07/22 09:56:12;;;;;;;39.85;23.50;;;30.90;99.90;;;;;;5095054;28;20119;-66
2023/07/22 09:58:40;;;;;;;44.85;27.60;;;30.90;99.90;;;;;;5094663;28;20107;-65
2023/07/22 10:01:09;;;;;;;42.83;22.75;;;30.90;99.90;;;;;;5094507;28;20024;-67
2023/07/22 10:03:38;;;;;;;49.80;29.73;;;30.90;99.90;;;;;;5094455;28;20027;-67
2023/07/22 10:06:07;;;;;;;93.40;35.40;;;30.80;99.90;;;;;;5094622;28;20020;-65
2023/07/22 10:08:36;;;;;;;32.33;20.60;;;30.90;99.90;;;;;;5094331;28;20026;-65
2023/07/22 10:11:05;;;;;;;39.13;21.90;;;31.00;99.90;;;;;;5094381;28;20016;-66
2023/07/22 10:13:33;;;;;;;34.78;21.50;;;31.00;99.90;;;;;;5094406;28;20028;-65
2023/07/22 10:16:00;;;;;;;36.08;20.98;;;31.10;99.90;;;;;;5096950;28;20030;-67
2023/07/22 10:18:27;;;;;;;38.33;22.75;;;31.10;99.90;;;;;;5104612;28;20112;-65
2023/07/22 10:20:54;;;;;;;45.83;28.67;;;31.10;99.90;;;;;;5098855;28;20035;-66
2023/07/22 10:23:23;;;;;;;51.67;33.35;;;31.10;99.90;;;;;;5093974;28;20019;-65
2023/07/22 10:25:51;;;;;;;44.25;28.50;;;31.20;99.90;;;;;;5094267;28;20051;-65
2023/07/22 10:28:19;;;;;;;49.40;30.95;;;31.20;99.90;;;;;;5094490;28;20035;-65
2023/07/22 10:30:46;;;;;;;90.35;54.33;;;31.20;99.90;;;;;;5094133;28;20039;-65
2023/07/22 10:33:12;;;;;;;92.43;48.03;;;31.10;99.90;;;;;;5094129;28;20040;-66
2023/07/22 10:35:44;;;;;;;106.10;57.20;;;31.10;99.90;;;;;;5094001;28;20043;-65
2023/07/22 10:38:12;;;;;;;61.00;32.67;;;31.10;99.90;;;;;;5093844;28;20031;-66
2023/07/22 10:40:54;;;;;;;190.23;87.57;;;31.10;99.90;;;;;;5094134;28;20033;-65
2023/07/22 10:43:35;;;;;;;211.95;90.20;;;31.10;99.90;;;;;;5094039;28;20058;-64
2023/07/22 10:46:09;;;;;;;192.68;81.75;;;31.10;99.90;;;;;;5094037;28;20032;-66
2023/07/22 10:48:38;;;;;;;125.03;55.40;;;31.10;99.90;;;;;;5093623;28;20043;-65
2023/07/22 10:51:17;;;;;;;94.65;45.95;;;31.10;99.90;;;;;;5093889;28;20103;-65
2023/07/22 10:53:46;;;;;;;59.03;32.88;;;31.10;99.90;;;;;;5094198;28;20138;-65
2023/07/22 10:56:19;;;;;;;104.50;55.90;;;31.00;99.90;;;;;;5093783;28;20024;-65
2023/07/22 10:58:46;;;;;;;97.97;52.78;;;31.00;99.90;;;;;;5094104;28;20028;-65
2023/07/22 11:01:34;;;;;;;158.43;74.10;;;30.90;99.90;;;;;;5108009;28;20032;-65
2023/07/22 11:04:12;;;;;;;160.10;73.82;;;30.90;99.90;;;;;;5106421;28;20446;-65
2023/07/22 11:06:40;;;;;;;124.00;72.43;;;30.90;99.90;;;;;;5114053;28;20034;-66
2023/07/22 11:09:07;;;;;;;118.35;70.25;;;30.90;99.90;;;;;;5113892;28;20026;-65
2023/07/22 11:11:49;;;;;;;137.15;77.22;;;30.90;99.90;;;;;;5114064;28;20020;-65
2023/07/22 11:14:18;;;;;;;;;;;30.90;99.90;;;;;;5114310;28;20024;-65
2023/07/22 11:16:47;;;;;;;138.45;82.32;;;30.90;99.90;;;;;;5113873;28;20319;-66
2023/07/22 11:19:15;;;;;;;156.55;97.45;;;30.80;99.90;;;;;;5113640;28;20104;-65
2023/07/22 11:21:42;;;;;;;127.70;75.32;;;30.80;99.90;;;;;;5113730;28;20076;-65
2023/07/22 11:24:09;;;;;;;88.65;52.55;;;30.80;99.90;;;;;;5113692;28;20405;-65
2023/07/22 11:26:37;;;;;;;93.72;49.67;;;30.80;99.90;;;;;;5113513;28;20028;-65
2023/07/22 11:29:05;;;;;;;83.32;48.05;;;30.80;99.90;;;;;;5113658;28;20016;-66
2023/07/22 11:31:45;;;;;;;84.35;45.83;;;30.80;99.90;;;;;;5113741;28;20031;-65
2023/07/22 11:34:14;;;;;;;90.00;49.03;;;30.80;99.90;;;;;;5113633;28;20028;-65
2023/07/22 11:36:41;;;;;;;77.93;44.58;;;30.70;99.90;;;;;;5113688;28;20016;-66
2023/07/22 11:39:14;;;;;;;69.93;42.75;;;30.70;99.90;;;;;;5113636;28;20043;-65
2023/07/22 11:41:41;;;;;;;75.00;42.78;;;30.60;99.90;;;;;;5113413;28;20020;-66
2023/07/22 11:44:09;;;;;;;68.07;42.80;;;30.60;99.90;;;;;;5113574;28;20031;-65
2023/07/22 11:46:46;;;;;;;80.68;44.30;;;30.60;99.90;;;;;;5113479;28;20027;-65
2023/07/22 11:49:13;;;;;;;85.32;47.53;;;30.60;99.90;;;;;;5113353;28;20068;-65
2023/07/22 11:51:43;;;;;;;82.72;46.00;;;30.60;99.90;;;;;;5113292;28;20027;-65
2023/07/22 11:54:10;;;;;;;77.65;47.22;;;30.60;99.90;;;;;;5113435;28;20474;-64
2023/07/22 11:56:39;;;;;;;85.00;51.88;;;30.60;99.90;;;;;;5109739;28;20035;-64
2023/07/22 11:59:08;;;;;;;97.18;54.28;;;30.60;99.90;;;;;;5113133;28;20043;-65
2023/07/22 12:01:35;;;;;;;90.53;52.50;;;30.60;99.90;;;;;;5110340;28;20103;-66
2023/07/22 12:04:01;;;;;;;86.35;55.53;;;30.50;99.90;;;;;;5102161;28;20024;-64
2023/07/22 12:06:28;;;;;;;90.95;53.90;;;30.60;99.90;;;;;;5093052;28;20032;-65
2023/07/22 12:08:54;;;;;;;88.00;52.05;;;30.60;99.90;;;;;;5092988;28;20466;-65
2023/07/22 12:11:24;;;;;;;72.90;48.50;;;30.50;99.90;;;;;;5093388;28;20024;-65
2023/07/22 12:14:10;;;;;;;95.85;54.83;;;30.50;99.90;;;;;;5102179;28;20024;-64
2023/07/22 12:16:38;;;;;;;86.97;52.42;;;30.50;99.90;;;;;;5115692;28;20041;-64
2023/07/22 12:19:05;;;;;;;87.90;52.85;;;30.40;99.90;;;;;;5118010;27;20050;-65
2023/07/22 12:21:32;;;;;;;85.00;47.00;;;30.50;99.90;;;;;;5118097;28;20057;-65
2023/07/22 12:23:59;;;;;;;56.50;37.05;;;30.50;99.90;;;;;;5117973;28;20031;-65
2023/07/22 12:26:26;;;;;;;49.03;31.70;;;30.50;99.90;;;;;;5117850;28;20023;-65
2023/07/22 12:28:52;;;;;;;51.95;27.85;;;30.40;99.90;;;;;;5112876;28;20111;-65
2023/07/22 12:31:19;;;;;;;53.60;26.95;;;30.40;99.90;;;;;;5097688;28;20117;-65
2023/07/22 12:33:46;;;;;;;43.83;26.27;;;30.40;99.90;;;;;;5097364;28;20031;-65
2023/07/22 12:36:12;;;;;;;41.42;22.92;;;30.40;99.90;;;;;;5097420;28;20028;-65
2023/07/22 12:38:39;;;;;;;34.05;22.77;;;30.40;99.90;;;;;;5097461;28;20036;-65
2023/07/22 12:41:05;;;;;;;36.03;22.95;;;30.40;99.90;;;;;;5121383;22;20044;-63
2023/07/22 12:43:32;;;;;;;40.78;24.65;;;30.40;99.90;;;;;;5097294;28;20039;-65
2023/07/22 12:45:58;;;;;;;38.78;25.40;;;30.30;99.90;;;;;;5097080;28;20057;-65
2023/07/22 12:48:25;;;;;;;42.65;25.55;;;30.30;99.90;;;;;;5097141;28;20032;-64
2023/07/22 12:50:52;;;;;;;47.10;25.48;;;30.30;99.90;;;;;;5091077;28;20032;-64
2023/07/22 12:53:18;;;;;;;39.85;26.20;;;30.30;99.90;;;;;;5097115;28;20036;-64
2023/07/22 12:55:45;;;;;;;39.38;26.17;;;30.30;99.90;;;;;;5091084;28;20028;-65
2023/07/22 12:58:11;;;;;;;37.80;26.60;;;30.30;99.90;;;;;;5087366;28;20039;-66
2023/07/22 13:00:38;;;;;;;43.63;29.27;;;30.30;99.90;;;;;;5093963;28;20056;-65
2023/07/22 13:03:04;;;;;;;50.90;33.75;;;30.30;99.90;;;;;;5090137;28;20036;-66
2023/07/22 13:05:31;;;;;;;46.58;32.78;;;30.30;99.90;;;;;;5092818;28;20051;-66